Time;durP1;ratioP1;P1;durP2;ratioP2;P2;SDS_P1;SDS_P2;PMS_P1;PMS_P2;Temp;Humidity;BMP_temperature;BMP_pressure;BME280_temperature;BME280_humidity;BME280_pressure;Samples;Min_cycle;Max_cycle;Signal;HPM_P1;HPM_P2
2023/08/17 00:02:12;;;;;;;3.83;1.90;;;18.30;99.90;;;;;;5084092;28;20454;-82
2023/08/17 00:04:46;;;;;;;3.20;2.43;;;18.30;99.90;;;;;;5076197;28;20534;-78
2023/08/17 00:07:13;;;;;;;5.13;2.40;;;18.30;99.90;;;;;;5079198;28;20478;-81
2023/08/17 00:09:40;;;;;;;4.90;2.60;;;18.30;99.90;;;;;;5078860;28;20502;-84
2023/08/17 00:12:08;;;;;;;7.30;3.80;;;18.40;99.90;;;;;;5086008;28;20447;-80
2023/08/17 00:14:35;;;;;;;7.17;2.33;;;18.30;99.90;;;;;;5092486;28;20513;-82
2023/08/17 00:17:02;;;;;;;5.07;2.37;;;18.30;99.90;;;;;;5086458;28;20959;-80
2023/08/17 00:19:29;;;;;;;5.80;2.90;;;18.30;99.90;;;;;;5088373;28;20472;-81
2023/08/17 00:21:58;;;;;;;3.10;2.30;;;18.30;99.90;;;;;;5085001;28;20868;-80
2023/08/17 00:24:27;;;;;;;5.47;2.10;;;18.40;99.90;;;;;;5082249;28;21006;-79
2023/08/17 00:26:54;;;;;;;8.43;2.67;;;18.40;99.90;;;;;;5087220;28;20441;-82
2023/08/17 00:29:21;;;;;;;6.13;2.37;;;18.40;99.90;;;;;;5081187;28;20502;-79
2023/08/17 00:31:49;;;;;;;12.67;3.20;;;18.40;99.90;;;;;;5087964;28;20463;-79
2023/08/17 00:34:17;;;;;;;7.07;2.80;;;18.40;99.90;;;;;;5092684;28;20544;-83
2023/08/17 00:36:44;;;;;;;6.53;2.50;;;18.30;99.90;;;;;;5089211;28;20448;-79
2023/08/17 00:39:12;;;;;;;4.63;2.73;;;18.30;99.90;;;;;;5078692;28;20473;-85
2023/08/17 00:41:39;;;;;;;5.83;2.63;;;18.30;99.90;;;;;;5085774;28;20481;-83
2023/08/17 00:44:12;;;;;;;3.63;2.40;;;18.30;99.90;;;;;;5081525;28;20552;-84
2023/08/17 00:46:39;;;;;;;9.50;2.50;;;18.30;99.90;;;;;;5079746;28;20518;-83
2023/08/17 00:49:10;;;;;;;3.10;2.17;;;18.30;99.90;;;;;;5086834;28;20501;-81
2023/08/17 00:51:39;;;;;;;2.83;1.77;;;18.40;99.90;;;;;;5085486;28;20505;-82
2023/08/17 00:54:06;;;;;;;6.77;2.50;;;18.30;99.90;;;;;;5078265;28;20557;-81
2023/08/17 00:56:35;;;;;;;3.07;2.37;;;18.30;99.90;;;;;;5081622;28;20432;-80
2023/08/17 00:59:02;;;;;;;4.27;2.43;;;18.30;99.90;;;;;;5084516;28;20524;-80
2023/08/17 01:01:29;;;;;;;4.57;2.30;;;18.30;99.90;;;;;;5092185;28;20501;-83
2023/08/17 01:03:56;;;;;;;7.50;2.17;;;18.20;99.90;;;;;;5088317;28;20458;-77
2023/08/17 01:06:23;;;;;;;1.93;1.80;;;18.30;99.90;;;;;;5088865;28;20550;-81
2023/08/17 01:08:50;;;;;;;4.40;2.40;;;18.20;99.90;;;;;;5076917;28;20461;-83
2023/08/17 01:11:25;;;;;;;7.40;3.50;;;18.30;99.90;;;;;;5083806;28;20436;-75
2023/08/17 01:13:58;;;;;;;8.27;3.10;;;18.30;99.90;;;;;;5047373;28;20491;-81
2023/08/17 01:16:30;;;;;;;3.50;2.20;;;18.10;99.90;;;;;;5057337;28;20439;-80
2023/08/17 01:19:00;;;;;;;3.70;2.20;;;18.30;99.90;;;;;;5079515;28;20492;-79
2023/08/17 01:21:36;;;;;;;4.03;2.30;;;18.20;99.90;;;;;;5088197;28;20440;-80
2023/08/17 01:24:06;;;;;;;6.77;2.33;;;18.20;99.90;;;;;;5053837;28;20901;-83
2023/08/17 01:26:34;;;;;;;6.67;2.20;;;18.30;99.90;;;;;;5081346;28;20476;-85
2023/08/17 01:29:01;;;;;;;2.20;1.80;;;18.30;99.90;;;;;;5080590;28;20444;-84
2023/08/17 01:31:33;;;;;;;6.87;2.27;;;18.30;99.90;;;;;;5080525;28;20472;-87
2023/08/17 01:34:05;;;;;;;6.93;2.20;;;18.30;99.90;;;;;;5090033;28;20475;-81
2023/08/17 01:36:38;;;;;;;4.17;1.93;;;18.30;99.90;;;;;;5085385;28;20527;-79
2023/08/17 01:39:08;;;;;;;4.73;2.40;;;18.30;99.90;;;;;;5091131;28;20914;-83
2023/08/17 01:41:37;;;;;;;5.27;2.47;;;18.20;99.90;;;;;;5074568;28;20476;-80
2023/08/17 01:44:05;;;;;;;6.53;2.63;;;18.20;99.90;;;;;;5076503;28;20861;-81
2023/08/17 01:46:35;;;;;;;4.47;2.67;;;18.30;99.90;;;;;;5087436;28;20464;-80
2023/08/17 01:49:02;;;;;;;6.23;3.23;;;18.10;99.90;;;;;;5078002;28;20469;-86
2023/08/17 01:51:30;;;;;;;9.80;2.60;;;18.20;99.90;;;;;;5081219;28;20445;-81
2023/08/17 01:53:57;;;;;;;4.97;2.70;;;18.20;99.90;;;;;;5077287;28;20494;-78
2023/08/17 01:56:31;;;;;;;6.03;2.60;;;18.20;99.90;;;;;;5094191;28;20508;-80
2023/08/17 01:58:58;;;;;;;4.30;2.13;;;18.20;99.90;;;;;;5085342;28;20985;-80
2023/08/17 02:01:25;;;;;;;5.07;2.27;;;18.20;99.90;;;;;;5085266;28;20440;-83
2023/08/17 02:03:52;;;;;;;5.70;2.77;;;18.20;99.90;;;;;;5081780;28;20464;-79
2023/08/17 02:06:20;;;;;;;5.97;2.40;;;18.20;99.90;;;;;;5070636;28;20482;-80
2023/08/17 02:08:47;;;;;;;3.50;2.30;;;18.20;99.90;;;;;;5086844;28;20456;-83
2023/08/17 02:11:14;;;;;;;4.83;2.57;;;18.20;99.90;;;;;;5084131;28;20535;-83
2023/08/17 02:13:43;;;;;;;6.90;2.57;;;18.10;99.90;;;;;;5074517;28;20483;-80
2023/08/17 02:16:10;;;;;;;3.00;1.63;;;18.20;99.90;;;;;;5082695;28;20527;-80
2023/08/17 02:18:37;;;;;;;6.87;3.77;;;18.20;99.90;;;;;;5081044;28;20476;-80
2023/08/17 02:21:04;;;;;;;2.53;1.90;;;18.10;99.90;;;;;;5082537;28;20912;-82
2023/08/17 02:23:31;;;;;;;9.17;2.93;;;18.10;99.90;;;;;;5079636;28;20496;-82
2023/08/17 02:25:58;;;;;;;4.63;2.63;;;18.20;99.90;;;;;;5087052;28;20526;-88
2023/08/17 02:28:25;;;;;;;5.30;2.40;;;18.20;99.90;;;;;;5082834;28;20799;-87
2023/08/17 02:30:57;;;;;;;3.17;1.83;;;18.10;99.90;;;;;;5078425;28;20527;-78
2023/08/17 02:33:25;;;;;;;7.50;2.73;;;18.20;99.90;;;;;;5081710;28;20529;-78
2023/08/17 02:35:53;;;;;;;4.00;2.37;;;18.20;99.90;;;;;;5084296;28;20443;-82
2023/08/17 02:38:20;;;;;;;8.33;3.33;;;18.20;99.90;;;;;;5073351;28;20432;-84
2023/08/17 02:40:49;;;;;;;6.33;3.20;;;18.20;99.90;;;;;;5083350;28;21109;-79
2023/08/17 02:43:16;;;;;;;6.00;3.03;;;18.20;99.90;;;;;;5082134;28;20492;-78
2023/08/17 02:45:44;;;;;;;9.07;2.30;;;18.20;99.90;;;;;;5087511;28;20471;-81
2023/08/17 02:48:12;;;;;;;6.30;2.90;;;18.20;99.90;;;;;;5081612;28;20521;-83
2023/08/17 02:50:39;;;;;;;7.60;2.90;;;18.20;99.90;;;;;;5092207;28;20972;-79
2023/08/17 02:53:06;;;;;;;2.60;1.97;;;18.10;99.90;;;;;;5083696;28;20463;-78
2023/08/17 02:55:33;;;;;;;4.40;2.60;;;18.10;99.90;;;;;;5087993;28;20875;-83
2023/08/17 02:58:00;;;;;;;4.87;3.00;;;18.10;99.90;;;;;;5091085;28;20955;-84
2023/08/17 03:00:27;;;;;;;3.63;2.43;;;18.10;99.90;;;;;;5083925;28;20479;-81
2023/08/17 03:02:54;;;;;;;6.67;2.87;;;18.10;99.90;;;;;;5094488;28;20471;-81
2023/08/17 03:05:23;;;;;;;5.50;2.63;;;18.10;99.90;;;;;;5086564;28;20479;-78
2023/08/17 03:07:50;;;;;;;5.47;2.87;;;18.10;99.90;;;;;;5076383;28;20534;-82
2023/08/17 03:10:17;;;;;;;5.80;2.70;;;18.10;99.90;;;;;;5072997;28;20515;-77
2023/08/17 03:12:44;;;;;;;4.03;2.33;;;18.10;99.90;;;;;;5086683;28;20862;-79
2023/08/17 03:15:11;;;;;;;5.63;2.10;;;18.10;99.90;;;;;;5099029;28;20526;-77
2023/08/17 03:17:39;;;;;;;4.93;2.50;;;18.10;99.90;;;;;;5090488;28;20440;-80
2023/08/17 03:20:08;;;;;;;4.70;3.63;;;18.10;99.90;;;;;;5077617;28;20445;-80
2023/08/17 03:22:39;;;;;;;4.20;2.33;;;18.10;99.90;;;;;;5089905;28;20435;-81
2023/08/17 03:25:07;;;;;;;2.20;2.00;;;18.10;99.90;;;;;;5101119;28;20460;-79
2023/08/17 03:27:37;;;;;;;4.83;2.70;;;18.10;99.90;;;;;;5096675;28;20491;-81
2023/08/17 03:30:06;;;;;;;4.50;2.90;;;18.10;99.90;;;;;;5084932;28;20441;-83
2023/08/17 03:32:33;;;;;;;7.30;3.00;;;18.10;99.90;;;;;;5080920;28;20510;-79
2023/08/17 03:35:00;;;;;;;7.00;2.80;;;18.00;99.90;;;;;;5084517;28;20536;-80
2023/08/17 03:37:28;;;;;;;6.30;3.33;;;18.00;99.90;;;;;;5087754;28;20524;-80
2023/08/17 03:39:56;;;;;;;5.07;2.80;;;18.00;99.90;;;;;;5075103;28;20500;-81
2023/08/17 03:42:24;;;;;;;6.30;3.03;;;18.00;99.90;;;;;;5088689;28;20483;-81
2023/08/17 03:44:52;;;;;;;9.70;2.87;;;18.00;99.90;;;;;;5078260;28;20488;-79
2023/08/17 03:47:19;;;;;;;6.07;2.70;;;17.90;99.90;;;;;;5091118;28;20551;-79
2023/08/17 03:49:47;;;;;;;7.57;2.80;;;18.00;99.90;;;;;;5085902;28;20531;-82
2023/08/17 03:52:14;;;;;;;2.80;2.20;;;18.00;99.90;;;;;;5082711;28;20938;-81
2023/08/17 03:54:41;;;;;;;6.07;3.23;;;18.00;99.90;;;;;;5072979;28;20471;-79
2023/08/17 03:57:09;;;;;;;5.77;2.73;;;18.00;99.90;;;;;;5084302;28;20473;-79
2023/08/17 03:59:37;;;;;;;3.07;2.10;;;18.00;99.90;;;;;;5085695;28;20443;-80
2023/08/17 04:02:04;;;;;;;8.90;2.70;;;18.00;99.90;;;;;;5084130;28;20452;-82
2023/08/17 04:04:31;;;;;;;5.30;2.50;;;18.00;99.90;;;;;;5076516;28;20496;-79
2023/08/17 04:06:58;;;;;;;9.90;2.40;;;18.00;99.90;;;;;;5084532;28;20479;-81
2023/08/17 04:09:25;;;;;;;2.60;1.83;;;17.90;99.90;;;;;;5089949;28;20526;-77
2023/08/17 04:11:54;;;;;;;4.90;3.17;;;18.00;99.90;;;;;;5096915;28;20443;-79
2023/08/17 04:14:22;;;;;;;3.77;2.60;;;18.00;99.90;;;;;;5089641;28;20476;-76
2023/08/17 04:16:49;;;;;;;6.73;2.60;;;18.00;99.90;;;;;;5084523;28;20536;-80
2023/08/17 04:19:26;;;;;;;4.60;2.20;;;18.00;99.90;;;;;;5084462;28;20500;-82
2023/08/17 04:21:52;;;;;;;2.57;1.97;;;18.00;99.90;;;;;;5082909;28;20481;-78
2023/08/17 04:24:19;;;;;;;4.00;2.43;;;18.00;99.90;;;;;;5086586;28;20546;-81
2023/08/17 04:26:47;;;;;;;3.47;2.20;;;17.90;99.90;;;;;;5093004;28;20489;-79
2023/08/17 04:29:16;;;;;;;7.73;2.43;;;17.90;99.90;;;;;;5084100;28;20452;-79
2023/08/17 04:31:45;;;;;;;8.00;2.20;;;17.90;99.90;;;;;;5081699;28;20466;-85
2023/08/17 04:34:13;;;;;;;4.33;2.20;;;17.90;99.90;;;;;;5082389;28;20491;-83
2023/08/17 04:36:40;;;;;;;4.20;3.53;;;17.90;99.90;;;;;;5078620;28;20523;-78
2023/08/17 04:39:09;;;;;;;9.87;3.20;;;17.90;99.90;;;;;;5090213;28;20432;-82
2023/08/17 04:41:37;;;;;;;5.33;2.27;;;17.90;99.90;;;;;;5091439;28;20432;-79
2023/08/17 04:44:05;;;;;;;10.60;3.07;;;17.90;99.90;;;;;;5085504;28;20473;-82
2023/08/17 04:46:32;;;;;;;4.93;2.43;;;17.90;99.90;;;;;;5078715;28;20551;-78
2023/08/17 04:49:00;;;;;;;6.70;2.60;;;17.90;99.90;;;;;;5077841;28;20446;-80
2023/08/17 04:51:27;;;;;;;9.23;2.97;;;17.90;99.90;;;;;;5073437;28;20524;-75
2023/08/17 04:53:55;;;;;;;6.77;2.57;;;17.90;99.90;;;;;;5074682;28;20489;-80
2023/08/17 04:56:22;;;;;;;5.33;2.93;;;17.90;99.90;;;;;;5084473;28;20844;-78
2023/08/17 04:58:49;;;;;;;2.83;2.30;;;17.80;99.90;;;;;;5069839;28;20477;-79
2023/08/17 05:01:16;;;;;;;4.33;3.10;;;17.90;99.90;;;;;;5070267;28;20921;-81
2023/08/17 05:03:43;;;;;;;5.03;2.70;;;17.90;99.90;;;;;;5074991;28;20565;-78
2023/08/17 05:06:11;;;;;;;3.43;2.60;;;17.90;99.90;;;;;;5081743;28;20568;-82
2023/08/17 05:08:38;;;;;;;3.70;2.50;;;17.90;99.90;;;;;;5077300;28;20915;-78
2023/08/17 05:11:05;;;;;;;4.47;2.63;;;17.90;99.90;;;;;;5084302;28;20530;-79
2023/08/17 05:13:32;;;;;;;4.83;2.00;;;17.90;99.90;;;;;;5077125;28;20476;-79
2023/08/17 05:15:59;;;;;;;3.13;2.60;;;17.90;99.90;;;;;;5074109;28;20453;-79
2023/08/17 05:18:26;;;;;;;6.57;2.37;;;17.90;99.90;;;;;;5076234;28;20532;-81
2023/08/17 05:20:54;;;;;;;7.00;2.87;;;17.90;99.90;;;;;;5072047;28;20470;-81
2023/08/17 05:23:22;;;;;;;7.03;3.67;;;17.90;99.90;;;;;;5073917;28;20843;-81
2023/08/17 05:25:49;;;;;;;6.50;3.10;;;17.90;99.90;;;;;;5076491;28;20841;-81
2023/08/17 05:28:16;;;;;;;6.20;3.60;;;17.90;99.90;;;;;;5080759;28;20568;-81
2023/08/17 05:30:44;;;;;;;3.70;2.63;;;17.90;99.90;;;;;;5068539;28;20483;-81
2023/08/17 05:33:10;;;;;;;3.23;2.70;;;17.90;99.90;;;;;;5077166;28;20547;-77
2023/08/17 05:35:37;;;;;;;5.87;3.17;;;18.00;99.90;;;;;;5076719;28;21002;-79
2023/08/17 05:38:04;;;;;;;6.17;2.83;;;18.10;99.90;;;;;;5072817;28;20435;-76
2023/08/17 05:40:33;;;;;;;7.50;3.17;;;18.10;99.90;;;;;;5075514;28;20535;-79
2023/08/17 05:43:00;;;;;;;3.87;2.50;;;18.10;99.90;;;;;;5070677;28;20897;-79
2023/08/17 05:45:36;;;;;;;7.30;2.87;;;18.20;99.90;;;;;;5080988;28;20879;-78
2023/08/17 05:48:04;;;;;;;6.03;3.27;;;18.20;99.90;;;;;;5077765;28;20475;-79
2023/08/17 05:50:32;;;;;;;5.30;2.27;;;18.30;99.90;;;;;;5071792;28;20436;-79
2023/08/17 05:52:59;;;;;;;6.80;2.40;;;18.30;99.90;;;;;;5075299;28;20464;-77
2023/08/17 05:55:28;;;;;;;3.23;2.40;;;18.30;99.90;;;;;;5066601;28;20455;-79
2023/08/17 05:57:56;;;;;;;6.30;2.47;;;18.40;99.90;;;;;;5080910;28;20433;-80
2023/08/17 06:00:24;;;;;;;4.17;2.07;;;18.40;99.90;;;;;;5066089;28;20450;-77
2023/08/17 06:02:51;;;;;;;3.10;2.33;;;18.40;99.90;;;;;;5072010;28;20457;-75
2023/08/17 06:05:18;;;;;;;4.57;2.40;;;18.50;99.90;;;;;;5075996;28;20440;-79
2023/08/17 06:07:45;;;;;;;3.90;2.40;;;18.50;99.90;;;;;;5072126;28;20487;-78
2023/08/17 06:10:13;;;;;;;4.00;2.70;;;18.60;99.90;;;;;;5081374;28;20444;-78
2023/08/17 06:12:42;;;;;;;4.97;2.87;;;18.60;99.90;;;;;;5068064;28;20437;-76
2023/08/17 06:15:11;;;;;;;3.40;2.40;;;18.60;99.90;;;;;;5076825;28;20474;-76
2023/08/17 06:17:40;;;;;;;5.67;2.67;;;18.70;99.90;;;;;;5079702;28;20482;-78
2023/08/17 06:20:09;;;;;;;6.00;2.67;;;18.70;99.90;;;;;;5074624;28;20500;-75
2023/08/17 06:22:36;;;;;;;3.90;2.37;;;18.70;99.90;;;;;;5077101;28;20445;-79
2023/08/17 06:25:05;;;;;;;4.23;1.97;;;18.70;99.90;;;;;;5093667;28;20576;-77
2023/08/17 06:27:31;;;;;;;5.50;2.90;;;18.80;99.90;;;;;;5090595;28;20490;-78
2023/08/17 06:29:58;;;;;;;5.20;3.20;;;18.90;99.90;;;;;;5084944;28;20447;-77
2023/08/17 06:32:27;;;;;;;4.40;2.70;;;19.00;99.90;;;;;;5085093;28;20467;-78
2023/08/17 06:34:54;;;;;;;4.80;3.27;;;19.00;99.90;;;;;;5076339;28;20489;-77
2023/08/17 06:37:21;;;;;;;3.63;2.60;;;19.10;99.90;;;;;;5094358;28;20922;-78
2023/08/17 06:39:48;;;;;;;4.47;2.63;;;19.10;99.90;;;;;;5080259;28;20516;-77
2023/08/17 06:42:15;;;;;;;3.83;2.23;;;19.20;99.90;;;;;;5080824;28;20442;-79
2023/08/17 06:44:42;;;;;;;7.00;3.07;;;19.30;99.90;;;;;;5079289;28;20524;-78
2023/08/17 06:47:27;;;;;;;3.77;2.27;;;19.40;99.90;;;;;;5064448;28;20841;-79
2023/08/17 06:49:55;;;;;;;4.93;2.80;;;19.30;99.90;;;;;;5074659;28;20481;-79
2023/08/17 06:52:22;;;;;;;3.40;2.70;;;19.40;99.90;;;;;;5084695;28;20907;-78
2023/08/17 06:54:49;;;;;;;4.80;4.00;;;19.30;99.90;;;;;;5079567;28;20552;-78
2023/08/17 06:57:16;;;;;;;6.10;3.70;;;19.30;99.90;;;;;;5081166;28;20432;-78
2023/08/17 06:59:45;;;;;;;4.57;2.60;;;19.20;99.90;;;;;;5087638;28;20479;-79
2023/08/17 07:02:13;;;;;;;8.93;3.03;;;19.20;99.90;;;;;;5072422;28;20452;-78
2023/08/17 07:04:42;;;;;;;7.73;4.20;;;19.20;99.90;;;;;;5091269;28;20490;-80
2023/08/17 07:07:09;;;;;;;4.07;3.40;;;19.20;99.90;;;;;;5089641;28;21001;-80
2023/08/17 07:09:36;;;;;;;5.73;3.17;;;19.20;99.90;;;;;;5076824;28;20432;-79
2023/08/17 07:12:07;;;;;;;5.43;3.60;;;19.20;99.90;;;;;;5083685;28;20536;-81
2023/08/17 07:14:34;;;;;;;5.10;3.10;;;19.20;99.90;;;;;;5085598;28;20967;-80
2023/08/17 07:17:01;;;;;;;9.60;4.20;;;19.20;99.90;;;;;;5090041;28;20748;-78
2023/08/17 07:19:28;;;;;;;7.10;3.73;;;19.20;99.90;;;;;;5080599;28;20536;-79
2023/08/17 07:22:01;;;;;;;9.37;3.53;;;19.20;99.90;;;;;;5081538;28;20874;-80
2023/08/17 07:24:28;;;;;;;4.23;3.07;;;19.20;99.90;;;;;;5098227;28;20861;-77
2023/08/17 07:26:55;;;;;;;4.83;2.80;;;19.20;99.90;;;;;;5075688;28;20512;-79
2023/08/17 07:29:22;;;;;;;5.33;3.30;;;19.20;99.90;;;;;;5084997;28;20445;-79
2023/08/17 07:31:49;;;;;;;6.53;3.20;;;19.20;99.90;;;;;;5074493;28;20916;-78
2023/08/17 07:34:16;;;;;;;4.83;2.30;;;19.10;99.90;;;;;;5066913;28;20541;-78
2023/08/17 07:36:43;;;;;;;6.40;2.90;;;19.10;99.90;;;;;;5074453;28;20448;-81
2023/08/17 07:39:11;;;;;;;4.07;2.43;;;19.10;99.90;;;;;;5073281;28;20524;-79
2023/08/17 07:41:39;;;;;;;3.23;2.10;;;19.00;99.90;;;;;;5079814;28;20907;-80
2023/08/17 07:44:06;;;;;;;3.40;2.30;;;19.00;99.90;;;;;;5081255;28;20469;-82
2023/08/17 07:46:33;;;;;;;3.60;2.60;;;19.00;99.90;;;;;;5073147;28;20480;-78
2023/08/17 07:49:00;;;;;;;5.67;2.97;;;19.00;99.90;;;;;;5082180;28;20883;-79
2023/08/17 07:51:29;;;;;;;4.23;2.33;;;19.10;99.90;;;;;;5077039;28;20799;-78
2023/08/17 07:53:56;;;;;;;3.60;2.10;;;19.20;99.90;;;;;;5070876;28;20546;-78
2023/08/17 07:56:26;;;;;;;4.90;2.50;;;19.20;99.90;;;;;;5084177;28;20440;-78
2023/08/17 07:58:54;;;;;;;3.13;2.20;;;19.30;99.90;;;;;;5067929;28;20859;-79
2023/08/17 08:01:21;;;;;;;2.90;2.37;;;19.30;99.90;;;;;;5069285;28;20536;-77
2023/08/17 08:03:47;;;;;;;2.63;1.70;;;19.40;99.90;;;;;;5083861;28;20482;-78
2023/08/17 08:06:14;;;;;;;6.07;2.23;;;19.50;99.90;;;;;;5072075;28;20456;-79
2023/08/17 08:08:41;;;;;;;2.60;2.00;;;19.60;99.90;;;;;;5076612;28;20518;-79
2023/08/17 08:11:08;;;;;;;3.93;2.07;;;19.60;99.90;;;;;;5075369;28;20457;-77
2023/08/17 08:13:37;;;;;;;3.60;1.70;;;19.60;99.90;;;;;;5073206;28;20501;-78
2023/08/17 08:16:04;;;;;;;6.20;2.60;;;19.80;99.90;;;;;;5082719;28;20923;-80
2023/08/17 08:18:31;;;;;;;2.60;2.40;;;20.00;99.90;;;;;;5076420;28;20439;-78
2023/08/17 08:20:59;;;;;;;3.37;2.43;;;20.10;99.90;;;;;;5081780;28;20937;-79
2023/08/17 08:23:27;;;;;;;5.07;2.53;;;20.10;99.90;;;;;;5081263;28;20474;-80
2023/08/17 08:25:55;;;;;;;4.50;1.80;;;20.10;99.90;;;;;;5085001;28;20953;-78
2023/08/17 08:28:22;;;;;;;3.33;1.97;;;20.20;99.90;;;;;;5086465;28;20968;-79
2023/08/17 08:30:50;;;;;;;2.37;1.63;;;20.20;99.90;;;;;;5076846;28;20465;-80
2023/08/17 08:33:17;;;;;;;3.63;1.70;;;20.10;99.90;;;;;;5078929;28;20504;-80
2023/08/17 08:35:44;;;;;;;4.60;2.20;;;20.10;99.90;;;;;;5071965;28;20473;-79
2023/08/17 08:38:15;;;;;;;2.80;1.87;;;20.00;99.90;;;;;;5069602;28;20466;-79
2023/08/17 08:40:43;;;;;;;3.60;1.80;;;20.10;99.90;;;;;;5082179;28;20495;-79
2023/08/17 08:43:10;;;;;;;10.10;2.70;;;20.20;99.90;;;;;;5077817;28;20469;-79
2023/08/17 08:45:40;;;;;;;1.87;1.50;;;20.20;99.90;;;;;;5079296;28;20444;-78
2023/08/17 08:48:10;;;;;;;2.13;1.90;;;20.10;99.90;;;;;;5081513;28;20480;-77
2023/08/17 08:50:40;;;;;;;2.80;1.83;;;20.00;99.90;;;;;;5079589;28;20579;-79
2023/08/17 08:53:14;;;;;;;3.37;2.00;;;19.80;99.90;;;;;;5084865;28;20544;-79
2023/08/17 08:55:48;;;;;;;2.00;1.80;;;19.70;99.90;;;;;;5073305;28;20471;-79
2023/08/17 08:58:17;;;;;;;3.00;1.97;;;19.60;99.90;;;;;;5088234;28;20433;-79
2023/08/17 09:00:47;;;;;;;3.47;3.07;;;19.60;99.90;;;;;;5082166;28;20421;-78
2023/08/17 09:03:17;;;;;;;2.37;1.93;;;19.70;99.90;;;;;;5081435;28;20461;-79
2023/08/17 09:05:48;;;;;;;3.40;2.23;;;19.70;99.90;;;;;;5075559;28;20453;-78
2023/08/17 09:08:16;;;;;;;2.70;1.63;;;19.50;99.90;;;;;;5080696;28;20472;-78
2023/08/17 09:10:43;;;;;;;3.93;1.50;;;19.50;99.90;;;;;;5075498;28;20481;-78
2023/08/17 09:13:11;;;;;;;3.70;2.07;;;19.50;99.90;;;;;;5073744;28;20486;-77
2023/08/17 09:15:38;;;;;;;2.07;1.70;;;19.50;99.90;;;;;;5078521;28;20490;-79
2023/08/17 09:18:07;;;;;;;5.27;2.13;;;19.40;99.90;;;;;;5065584;28;20757;-79
2023/08/17 09:20:40;;;;;;;2.13;1.73;;;19.40;99.90;;;;;;5073042;28;20441;-78
2023/08/17 09:23:12;;;;;;;3.00;1.60;;;19.40;99.90;;;;;;5079684;28;20460;-77
2023/08/17 09:25:40;;;;;;;3.03;1.73;;;19.40;99.90;;;;;;5083199;28;20494;-78
2023/08/17 09:28:14;;;;;;;2.40;1.73;;;19.40;99.90;;;;;;5078389;28;20968;-77
2023/08/17 09:30:52;;;;;;;3.17;1.40;;;19.20;99.90;;;;;;5079331;28;20442;-77
2023/08/17 09:33:19;;;;;;;4.10;1.40;;;19.10;99.90;;;;;;5077434;28;20466;-78
2023/08/17 09:35:49;;;;;;;2.20;1.20;;;19.20;99.90;;;;;;5074312;28;20456;-78
2023/08/17 09:38:17;;;;;;;1.40;1.27;;;19.20;99.90;;;;;;5081232;28;20478;-78
2023/08/17 09:40:45;;;;;;;2.10;1.17;;;19.20;99.90;;;;;;5082569;28;20436;-79
2023/08/17 09:43:13;;;;;;;3.70;1.73;;;19.30;99.90;;;;;;5083286;28;20543;-79
2023/08/17 09:45:40;;;;;;;2.00;1.20;;;19.20;99.90;;;;;;5072710;28;20767;-78
2023/08/17 09:48:08;;;;;;;1.73;1.27;;;19.10;99.90;;;;;;5080985;28;20531;-78
2023/08/17 09:50:36;;;;;;;3.90;1.53;;;19.30;99.90;;;;;;5078512;28;20440;-78
2023/08/17 09:53:04;;;;;;;2.27;1.30;;;19.50;99.90;;;;;;5082775;28;20943;-81
2023/08/17 09:55:33;;;;;;;3.03;1.03;;;19.70;99.90;;;;;;5069109;28;20469;-80
2023/08/17 09:58:00;;;;;;;2.27;1.20;;;19.90;99.90;;;;;;5075546;28;20433;-80
2023/08/17 10:00:28;;;;;;;2.60;1.50;;;20.00;99.90;;;;;;5075325;28;20604;-77
2023/08/17 10:02:59;;;;;;;3.17;1.60;;;20.10;99.90;;;;;;5079354;28;20450;-79
2023/08/17 10:05:29;;;;;;;2.07;1.70;;;20.20;99.90;;;;;;5080617;28;20425;-80
2023/08/17 10:08:00;;;;;;;3.40;1.80;;;20.20;99.90;;;;;;5073920;28;20513;-79
2023/08/17 10:10:35;;;;;;;3.20;1.60;;;20.20;99.90;;;;;;5073716;28;20974;-79
2023/08/17 10:13:09;;;;;;;2.50;1.90;;;20.20;99.90;;;;;;5077160;28;20431;-79
2023/08/17 10:15:41;;;;;;;3.30;1.87;;;20.20;99.90;;;;;;5080147;28;20796;-78
2023/08/17 10:18:16;;;;;;;1.83;1.53;;;20.10;99.90;;;;;;5063135;28;20438;-79
2023/08/17 10:20:49;;;;;;;4.13;1.90;;;20.10;99.90;;;;;;5080076;28;20530;-79
2023/08/17 10:23:20;;;;;;;5.27;2.40;;;20.30;99.90;;;;;;5056245;28;20470;-77
2023/08/17 10:25:50;;;;;;;2.30;1.87;;;20.40;99.90;;;;;;5086940;28;20542;-78
2023/08/17 10:28:18;;;;;;;3.60;1.80;;;20.40;99.90;;;;;;5083835;28;20492;-79
2023/08/17 10:30:45;;;;;;;3.83;2.30;;;20.50;99.90;;;;;;5063215;28;20498;-79
2023/08/17 10:33:13;;;;;;;2.73;1.90;;;20.70;99.90;;;;;;5082967;28;20455;-79
2023/08/17 10:35:41;;;;;;;3.80;1.77;;;20.80;99.90;;;;;;5071189;28;20463;-79
2023/08/17 10:38:09;;;;;;;3.57;1.97;;;20.90;99.90;;;;;;5075933;28;20483;-80
2023/08/17 10:40:37;;;;;;;2.53;1.77;;;21.10;99.90;;;;;;5085446;28;20479;-79
2023/08/17 10:43:06;;;;;;;2.60;1.83;;;21.10;99.90;;;;;;5082487;28;20467;-78
2023/08/17 10:45:34;;;;;;;2.37;2.13;;;20.90;99.90;;;;;;5081355;28;20526;-78
2023/08/17 10:48:20;;;;;;;2.97;2.13;;;20.80;99.90;;;;;;5081599;28;20496;-79
2023/08/17 10:51:02;;;;;;;2.03;1.83;;;20.90;99.90;;;;;;5067970;28;20459;-79
2023/08/17 10:53:35;;;;;;;2.70;2.00;;;20.80;99.90;;;;;;5057694;28;20521;-77
2023/08/17 10:56:07;;;;;;;1.90;1.43;;;20.60;99.90;;;;;;5078248;28;20457;-78
2023/08/17 10:58:44;;;;;;;2.67;2.10;;;20.60;99.90;;;;;;5083173;28;20516;-79
2023/08/17 11:01:11;;;;;;;4.30;2.20;;;20.40;99.90;;;;;;5079089;28;20474;-79
2023/08/17 11:03:39;;;;;;;3.07;2.07;;;20.30;99.90;;;;;;5078779;28;20779;-78
2023/08/17 11:06:17;;;;;;;10.47;2.00;;;20.40;99.90;;;;;;5065321;28;20445;-78
2023/08/17 11:08:56;;;;;;;2.67;2.03;;;20.30;99.90;;;;;;5087734;28;20519;-79
2023/08/17 11:11:24;;;;;;;2.30;1.87;;;20.20;99.90;;;;;;5051528;28;21002;-78
2023/08/17 11:13:55;;;;;;;1.80;1.67;;;20.20;99.90;;;;;;5067929;28;20591;-79
2023/08/17 11:16:23;;;;;;;3.40;2.60;;;20.20;99.90;;;;;;5087620;28;20454;-79
2023/08/17 11:18:50;;;;;;;3.90;2.60;;;20.30;99.90;;;;;;5079219;28;20932;-79
2023/08/17 11:21:18;;;;;;;1.97;1.80;;;20.40;99.90;;;;;;5082242;28;20449;-79
2023/08/17 11:23:45;;;;;;;4.13;2.30;;;20.50;99.90;;;;;;5087069;28;20990;-79
2023/08/17 11:26:12;;;;;;;2.50;2.20;;;20.60;99.90;;;;;;5086852;28;20487;-79
2023/08/17 11:28:40;;;;;;;3.33;2.47;;;20.70;99.90;;;;;;5079991;28;20563;-79
2023/08/17 11:31:15;;;;;;;3.20;2.53;;;20.80;99.90;;;;;;5076808;28;20914;-78
2023/08/17 11:33:42;;;;;;;4.87;2.80;;;21.00;99.90;;;;;;5072481;28;20511;-78
2023/08/17 11:36:11;;;;;;;5.10;2.83;;;21.00;99.90;;;;;;5083658;28;20911;-78
2023/08/17 11:38:40;;;;;;;3.67;2.83;;;20.90;99.90;;;;;;5090607;28;20980;-79
2023/08/17 11:41:08;;;;;;;3.10;2.30;;;20.80;99.90;;;;;;5081415;28;20455;-78
2023/08/17 11:43:35;;;;;;;3.20;2.17;;;20.80;99.90;;;;;;5079197;28;20475;-79
2023/08/17 11:46:04;;;;;;;3.70;1.90;;;20.80;99.90;;;;;;5083302;28;20551;-79
2023/08/17 11:48:34;;;;;;;3.43;2.00;;;21.00;99.90;;;;;;5072707;28;20467;-81
2023/08/17 11:51:01;;;;;;;1.80;1.63;;;21.10;99.90;;;;;;5086167;28;20466;-79
2023/08/17 11:53:34;;;;;;;2.90;2.00;;;21.10;99.90;;;;;;5083653;28;20518;-79
2023/08/17 11:56:01;;;;;;;2.10;1.40;;;21.30;99.90;;;;;;5045941;28;20446;-78
2023/08/17 11:58:42;;;;;;;2.53;1.80;;;21.50;99.90;;;;;;5087066;28;20476;-78
2023/08/17 12:01:11;;;;;;;2.20;2.00;;;21.50;99.90;;;;;;5081472;28;20523;-78
2023/08/17 12:03:40;;;;;;;3.20;2.20;;;21.50;99.90;;;;;;5084253;28;20472;-79
2023/08/17 12:06:08;;;;;;;3.37;2.40;;;21.40;99.90;;;;;;5081747;28;20444;-78
2023/08/17 12:08:35;;;;;;;4.33;2.37;;;21.40;99.90;;;;;;5069136;28;20513;-78
2023/08/17 12:11:03;;;;;;;2.57;2.20;;;21.20;99.90;;;;;;5080993;28;20465;-78
2023/08/17 12:13:36;;;;;;;3.83;2.40;;;21.00;99.90;;;;;;5079744;28;20488;-79
2023/08/17 12:16:05;;;;;;;2.70;2.10;;;20.80;99.90;;;;;;5075099;28;20445;-79
2023/08/17 12:18:33;;;;;;;3.43;3.00;;;20.50;99.90;;;;;;5089923;28;20975;-77
2023/08/17 12:21:02;;;;;;;5.60;3.13;;;20.30;99.90;;;;;;5071744;28;20479;-78
2023/08/17 12:23:29;;;;;;;2.93;1.77;;;20.10;99.90;;;;;;5080087;28;20503;-77
2023/08/17 12:25:57;;;;;;;3.17;2.07;;;19.90;99.90;;;;;;5080099;28;20471;-78
2023/08/17 12:28:24;;;;;;;3.20;2.00;;;19.80;99.90;;;;;;5078504;28;20917;-79
2023/08/17 12:31:00;;;;;;;2.87;1.53;;;19.80;99.90;;;;;;5067013;28;20961;-79
2023/08/17 12:33:27;;;;;;;1.80;1.60;;;19.70;99.90;;;;;;5081062;28;20467;-79
2023/08/17 12:35:54;;;;;;;1.90;1.57;;;19.70;99.90;;;;;;5078621;28;20527;-78
2023/08/17 12:38:24;;;;;;;2.83;1.70;;;19.70;99.90;;;;;;5070966;28;20487;-79
2023/08/17 12:40:51;;;;;;;1.50;1.30;;;19.70;99.90;;;;;;5079974;28;20448;-80
2023/08/17 12:43:19;;;;;;;2.47;1.40;;;19.70;99.90;;;;;;5080870;28;20467;-77
2023/08/17 12:45:46;;;;;;;1.63;1.00;;;19.70;99.90;;;;;;5094584;28;20533;-78
2023/08/17 12:48:13;;;;;;;1.30;1.00;;;19.70;99.90;;;;;;5083215;28;20878;-80
2023/08/17 12:50:40;;;;;;;1.57;1.30;;;19.60;99.90;;;;;;5086341;28;20520;-79
2023/08/17 12:53:07;;;;;;;2.03;1.70;;;19.70;99.90;;;;;;5083649;28;20523;-80